Watertown, Wisconsin
Current Conditions -  °F | °C
As of 7:15 AM on Monday 22 Dec 2014 (Local Time) from KRYV Reporting Station
Unknown Precip Unknown Precip  
Wind Chill: 26°   Ceiling: 3300
Heat Index: 32°   Visibility: 4mi
Dew Point: 32°   Wind: 7mph
Humidity: 100%   Direction: 110°ESE
Pressure: 29.89"   Gusts: NA
Location:  43.2°N, 88.72°W
Report Text: KRYV 221315Z AUTO 11006KT 4SM UP OVC033 00/00 A2989 RMK AO2 T00000000
Loading
Personal Weather Stations






























Interactive Weather Map New forecast layout! Learn more

10-Day Weather Forecast

Advertisements
Track Severe Weather on mobile